createdAt,value
2023-05-22T00:00:39.376Z,73.05
2023-05-22T00:03:08.387Z,73.88
2023-05-22T00:05:38.833Z,73.42
2023-05-22T00:08:10.736Z,73.10
2023-05-22T00:10:38.491Z,73.34
2023-05-22T00:13:06.216Z,73.64
2023-05-22T00:15:35.418Z,73.18
2023-05-22T00:18:03.955Z,73.14
2023-05-22T00:20:31.537Z,73.02
2023-05-22T00:23:01.132Z,73.09
2023-05-22T00:25:28.723Z,73.35
2023-05-22T00:27:56.299Z,72.99
2023-05-22T00:30:23.869Z,72.92
2023-05-22T00:32:52.778Z,72.75
2023-05-22T00:35:20.535Z,72.91
2023-05-22T00:37:48.049Z,72.85
2023-05-22T00:40:16.627Z,72.81
2023-05-22T00:42:44.404Z,72.94
2023-05-22T00:45:12.696Z,73.00
2023-05-22T00:47:40.477Z,73.28
2023-05-22T00:50:11.396Z,72.95
2023-05-22T00:52:41.272Z,72.96
2023-05-22T00:55:10.489Z,72.93
2023-05-22T00:57:40.252Z,73.02
2023-05-22T01:00:10.884Z,73.28
2023-05-22T01:02:38.688Z,73.38
2023-05-22T01:05:07.855Z,74.39
2023-05-22T01:07:37.648Z,74.61
2023-05-22T01:10:07.107Z,75.82
2023-05-22T01:12:39.742Z,76.75
2023-05-22T01:15:13.980Z,78.37
2023-05-22T01:17:48.174Z,81.36
2023-05-22T01:20:22.379Z,82.06
2023-05-22T01:23:25.374Z,82.13
2023-05-22T01:26:04.770Z,83.04
2023-05-22T01:28:43.652Z,81.56
2023-05-22T01:31:14.595Z,82.90
2023-05-22T01:33:43.621Z,83.26
2023-05-22T01:36:12.692Z,83.24
2023-05-22T01:38:40.271Z,83.27
2023-05-22T01:41:07.840Z,84.00
2023-05-22T01:43:38.443Z,84.66
2023-05-22T01:46:06.291Z,84.96
2023-05-22T01:48:36.297Z,84.69
2023-05-22T01:51:06.721Z,85.13
2023-05-22T01:53:36.512Z,86.01
2023-05-22T01:56:06.204Z,85.11
2023-05-22T01:58:40.018Z,84.14
2023-05-22T02:01:09.240Z,84.10
2023-05-22T02:03:40.923Z,84.77
2023-05-22T02:06:10.164Z,85.07
2023-05-22T02:08:38.726Z,83.98
2023-05-22T02:11:06.689Z,83.59
2023-05-22T02:13:34.637Z,83.92
2023-05-22T02:16:03.898Z,86.30
2023-05-22T02:18:31.725Z,88.60
2023-05-22T02:21:02.703Z,89.82
2023-05-22T02:23:30.269Z,90.65
2023-05-22T02:25:57.917Z,90.90
2023-05-22T02:28:25.535Z,90.97
2023-05-22T02:30:53.134Z,91.33
2023-05-22T02:33:20.724Z,90.76
2023-05-22T02:35:48.278Z,90.11
2023-05-22T02:38:17.138Z,89.26
2023-05-22T02:40:44.792Z,88.41
2023-05-22T02:43:12.343Z,87.24
2023-05-22T02:45:39.828Z,87.95
2023-05-22T02:48:07.521Z,88.91
2023-05-22T02:50:35.055Z,89.88
2023-05-22T02:53:02.542Z,89.90
2023-05-22T02:55:31.442Z,90.14
2023-05-22T02:57:58.946Z,90.01
2023-05-22T03:00:26.524Z,91.38
2023-05-22T03:02:54.163Z,92.36
2023-05-22T03:05:21.840Z,91.90
2023-05-22T03:07:49.908Z,91.30
2023-05-22T03:10:17.401Z,89.80
2023-05-22T03:12:46.267Z,87.79
2023-05-22T03:15:13.764Z,86.64
2023-05-22T03:17:41.373Z,86.13
2023-05-22T03:20:10.135Z,85.38
2023-05-22T03:22:37.921Z,86.22
2023-05-22T03:25:09.273Z,86.16
2023-05-22T03:27:36.993Z,85.75
2023-05-22T03:30:07.338Z,85.59
2023-05-22T03:32:37.323Z,85.81
2023-05-22T03:35:06.097Z,84.36
2023-05-22T03:37:33.826Z,83.32
2023-05-22T03:40:01.349Z,82.33
2023-05-22T03:42:28.852Z,81.05
2023-05-22T03:44:56.354Z,81.26
2023-05-22T03:47:25.232Z,80.86
2023-05-22T03:49:52.760Z,80.49
2023-05-22T03:52:20.398Z,80.21
2023-05-22T03:54:47.970Z,80.01
2023-05-22T03:57:16.316Z,79.63
2023-05-22T03:59:43.791Z,79.59
2023-05-22T04:02:12.872Z,79.47
2023-05-22T04:04:41.875Z,79.65
2023-05-22T04:07:09.445Z,79.48
2023-05-22T04:09:36.996Z,78.83
2023-05-22T04:12:05.145Z,78.44
2023-05-22T04:14:32.772Z,78.47
2023-05-22T04:17:00.478Z,78.30
2023-05-22T04:19:29.948Z,78.56
2023-05-22T04:21:59.330Z,78.39
2023-05-22T04:24:27.537Z,78.22
2023-05-22T04:26:55.068Z,77.70
2023-05-22T04:29:22.777Z,77.90
2023-05-22T04:31:50.369Z,77.46
2023-05-22T04:34:18.493Z,77.22
2023-05-22T04:36:46.974Z,77.31
2023-05-22T04:39:15.970Z,77.54
2023-05-22T04:41:43.447Z,77.37
2023-05-22T04:44:10.958Z,77.53
2023-05-22T04:46:38.634Z,77.06
2023-05-22T04:49:06.203Z,77.30
2023-05-22T04:51:36.008Z,76.95
2023-05-22T04:54:03.565Z,76.83
2023-05-22T04:56:36.768Z,76.73
2023-05-22T04:59:08.984Z,76.32
2023-05-22T05:01:37.863Z,76.88
2023-05-22T05:04:05.978Z,75.96
2023-05-22T05:06:34.662Z,76.02
2023-05-22T05:09:02.226Z,75.77
2023-05-22T05:11:29.835Z,75.17
2023-05-22T05:13:58.655Z,75.35
2023-05-22T05:16:26.355Z,75.36
2023-05-22T05:18:55.569Z,75.82
2023-05-22T05:21:27.706Z,75.91
2023-05-22T05:23:55.291Z,76.61
2023-05-22T05:26:24.045Z,75.89
2023-05-22T05:28:51.623Z,76.04
2023-05-22T05:31:20.872Z,75.11
2023-05-22T05:33:48.880Z,74.58
2023-05-22T05:36:17.071Z,74.04
2023-05-22T05:38:44.574Z,73.72
2023-05-22T05:41:12.088Z,73.53
2023-05-22T05:43:39.609Z,73.65
2023-05-22T05:46:07.505Z,72.93
2023-05-22T05:48:36.436Z,72.85
2023-05-22T05:51:04.985Z,72.81
2023-05-22T05:53:32.792Z,72.16
2023-05-22T05:56:00.332Z,72.12
2023-05-22T05:58:27.851Z,71.29
2023-05-22T06:00:55.457Z,71.50
2023-05-22T06:03:25.508Z,71.27
2023-05-22T06:05:54.648Z,70.99
2023-05-22T06:08:22.531Z,71.01
2023-05-22T06:10:50.064Z,70.61
2023-05-22T06:13:17.562Z,70.17
2023-05-22T06:15:45.105Z,69.50
2023-05-22T06:18:13.629Z,69.81
2023-05-22T06:20:41.431Z,69.12
2023-05-22T06:23:11.004Z,69.43
2023-05-22T06:25:39.785Z,68.64
2023-05-22T06:28:07.348Z,67.82
2023-05-22T06:30:40.135Z,67.72
2023-05-22T06:33:08.089Z,67.32
2023-05-22T06:35:35.739Z,67.11
2023-05-22T06:38:03.270Z,66.75
2023-05-22T06:40:32.196Z,65.75
2023-05-22T06:42:59.833Z,66.29
2023-05-22T06:45:27.355Z,65.74
2023-05-22T06:47:55.475Z,65.56
2023-05-22T06:50:23.232Z,64.99
2023-05-22T06:52:50.825Z,64.83
2023-05-22T06:55:18.375Z,64.55
2023-05-22T06:57:47.206Z,64.29
2023-05-22T07:00:15.467Z,63.98
2023-05-22T07:02:43.181Z,63.37
2023-05-22T07:05:10.736Z,62.92
2023-05-22T07:07:38.302Z,62.49
2023-05-22T07:10:07.083Z,63.07
2023-05-22T07:12:34.679Z,62.73
2023-05-22T07:15:03.616Z,62.58
2023-05-22T07:17:31.750Z,62.77
2023-05-22T07:19:59.269Z,62.44
2023-05-22T07:22:26.986Z,61.51
2023-05-22T07:24:54.508Z,62.67
2023-05-22T07:27:22.018Z,62.79
2023-05-22T07:29:49.850Z,62.97
2023-05-22T07:32:18.724Z,61.87
2023-05-22T07:34:46.256Z,60.68
2023-05-22T07:37:14.759Z,59.79
2023-05-22T07:39:42.272Z,59.41
2023-05-22T07:42:10.670Z,58.61
2023-05-22T07:44:38.232Z,62.01
2023-05-22T07:47:06.409Z,60.34
2023-05-22T07:49:35.338Z,59.05
2023-05-22T07:52:02.910Z,58.05
2023-05-22T07:54:30.536Z,58.74
2023-05-22T07:56:58.073Z,58.46
2023-05-22T07:59:25.910Z,57.80
2023-05-22T08:01:53.739Z,57.69
2023-05-22T08:04:21.759Z,57.00
2023-05-22T08:06:50.803Z,57.30
2023-05-22T08:09:18.690Z,56.93
2023-05-22T08:11:46.240Z,57.04
2023-05-22T08:14:13.751Z,56.21
2023-05-22T08:16:41.310Z,55.66
2023-05-22T08:19:09.314Z,56.10
2023-05-22T08:21:37.467Z,56.28
2023-05-22T08:24:07.032Z,56.43
2023-05-22T08:26:34.682Z,56.06
2023-05-22T08:29:02.534Z,54.98
2023-05-22T08:31:30.249Z,54.39
2023-05-22T08:34:02.489Z,54.10
2023-05-22T08:36:31.393Z,53.63
2023-05-22T08:38:58.920Z,53.99
2023-05-22T08:41:27.984Z,53.37
2023-05-22T08:43:55.516Z,52.67
2023-05-22T08:46:26.278Z,55.34
2023-05-22T08:48:56.674Z,53.76
2023-05-22T08:51:28.045Z,53.00
2023-05-22T08:53:57.410Z,52.09
2023-05-22T08:56:26.783Z,54.38
2023-05-22T08:58:58.579Z,53.06
2023-05-22T09:01:26.375Z,52.65
2023-05-22T09:03:54.015Z,53.34
2023-05-22T09:06:21.617Z,51.20
2023-05-22T09:08:51.403Z,51.62
2023-05-22T09:11:19.252Z,52.44
2023-05-22T09:13:46.832Z,52.54
2023-05-22T09:16:16.469Z,52.16
2023-05-22T09:18:44.239Z,52.10
2023-05-22T09:21:28.878Z,51.99
2023-05-22T09:24:01.026Z,53.45
2023-05-22T09:26:29.124Z,52.44
2023-05-22T09:28:57.080Z,52.33
2023-05-22T09:31:26.126Z,52.91
2023-05-22T09:33:54.298Z,52.01
2023-05-22T09:36:22.020Z,52.41
2023-05-22T09:38:49.649Z,52.00
2023-05-22T09:41:22.140Z,51.84
2023-05-22T09:43:51.253Z,52.25
2023-05-22T09:46:18.842Z,51.30
2023-05-22T09:48:52.384Z,51.32
2023-05-22T09:51:21.060Z,50.92
2023-05-22T09:53:49.950Z,50.59
2023-05-22T09:56:30.757Z,51.60
2023-05-22T09:59:06.614Z,50.71
2023-05-22T10:01:34.790Z,50.30
2023-05-22T10:04:03.825Z,48.69
2023-05-22T10:06:33.893Z,49.20
2023-05-22T10:09:05.865Z,49.50
2023-05-22T10:11:34.081Z,48.98
2023-05-22T10:14:02.757Z,51.10
2023-05-22T10:16:31.216Z,51.54
2023-05-22T10:18:59.096Z,51.54
2023-05-22T10:21:29.233Z,52.28
2023-05-22T10:23:56.811Z,51.06
2023-05-22T10:26:24.917Z,49.59
2023-05-22T10:28:54.473Z,50.14
2023-05-22T10:31:28.212Z,49.41
2023-05-22T10:33:58.361Z,47.43
2023-05-22T10:36:38.196Z,46.98
2023-05-22T10:39:13.466Z,46.85
2023-05-22T10:41:41.209Z,46.83
2023-05-22T10:44:08.724Z,47.35
2023-05-22T10:46:37.312Z,47.98
2023-05-22T10:49:04.850Z,49.49
2023-05-22T10:51:35.233Z,48.86
2023-05-22T10:54:05.183Z,46.63
2023-05-22T10:56:36.203Z,46.98
2023-05-22T10:59:07.314Z,48.20
2023-05-22T11:01:37.844Z,48.13
2023-05-22T11:04:12.539Z,46.95
2023-05-22T11:06:42.476Z,48.44
2023-05-22T11:09:29.112Z,46.92
2023-05-22T11:12:16.896Z,46.56
2023-05-22T11:14:48.559Z,46.05
2023-05-22T11:17:18.776Z,48.39
2023-05-22T11:19:50.175Z,47.36
2023-05-22T11:22:19.804Z,45.66
2023-05-22T11:24:47.358Z,44.54
2023-05-22T11:27:15.131Z,44.92
2023-05-22T11:29:44.394Z,44.64
2023-05-22T11:32:12.069Z,44.64
2023-05-22T11:34:40.635Z,45.58
2023-05-22T11:37:08.493Z,44.28
2023-05-22T11:39:37.348Z,45.06
2023-05-22T11:42:05.318Z,48.27
2023-05-22T11:44:32.869Z,44.47
2023-05-22T11:47:00.643Z,45.65
2023-05-22T11:49:28.966Z,47.03
2023-05-22T11:51:56.475Z,44.04
2023-05-22T11:54:23.979Z,43.98
2023-05-22T11:56:52.906Z,43.29
2023-05-22T11:59:22.229Z,43.97
2023-05-22T12:01:50.439Z,43.62
2023-05-22T12:04:18.082Z,44.00
2023-05-22T12:06:45.762Z,43.49
2023-05-22T12:09:13.341Z,43.96
2023-05-22T12:11:40.948Z,45.66
2023-05-22T12:14:12.570Z,45.21
2023-05-22T12:16:40.675Z,44.06
2023-05-22T12:19:08.811Z,44.58
2023-05-22T12:21:36.634Z,43.58
2023-05-22T12:24:05.669Z,46.25
2023-05-22T12:26:33.693Z,43.51
2023-05-22T12:29:01.408Z,44.02
2023-05-22T12:31:35.774Z,44.40
2023-05-22T12:34:05.205Z,43.67
2023-05-22T12:36:34.845Z,44.62
2023-05-22T12:39:03.653Z,43.34
2023-05-22T12:41:31.181Z,45.70
2023-05-22T12:43:58.704Z,43.44
2023-05-22T12:46:26.264Z,43.77
2023-05-22T12:48:55.377Z,42.14
2023-05-22T12:51:24.047Z,42.41
2023-05-22T12:53:51.604Z,40.38
2023-05-22T12:56:19.150Z,40.25
2023-05-22T12:58:46.678Z,40.29
2023-05-22T13:01:14.319Z,40.67
2023-05-22T13:03:41.926Z,42.47
2023-05-22T13:06:12.199Z,41.16
2023-05-22T13:08:39.759Z,43.44
2023-05-22T13:11:07.304Z,41.53
2023-05-22T13:13:34.871Z,41.52
2023-05-22T13:16:02.725Z,41.87
2023-05-22T13:18:30.517Z,41.55
2023-05-22T13:20:59.952Z,40.89
2023-05-22T13:23:28.909Z,42.57
2023-05-22T13:25:56.426Z,42.18
2023-05-22T13:28:23.979Z,41.89
2023-05-22T13:30:51.459Z,41.49
2023-05-22T13:33:18.991Z,41.52
2023-05-22T13:35:46.578Z,43.82
2023-05-22T13:38:14.116Z,42.70
2023-05-22T13:40:42.983Z,42.31
2023-05-22T13:43:10.500Z,42.85
2023-05-22T13:45:38.222Z,41.46
2023-05-22T13:48:05.993Z,42.74
2023-05-22T13:50:33.521Z,42.14
2023-05-22T13:53:01.073Z,43.08
2023-05-22T13:55:28.721Z,41.61
2023-05-22T13:57:57.585Z,40.58
2023-05-22T14:00:25.195Z,39.82
2023-05-22T14:02:52.861Z,43.53
2023-05-22T14:05:20.763Z,41.00
2023-05-22T14:07:48.304Z,41.79
2023-05-22T14:10:16.089Z,40.54
2023-05-22T14:12:43.608Z,37.64
2023-05-22T14:15:12.863Z,36.43
2023-05-22T14:17:40.351Z,36.83
2023-05-22T14:20:08.819Z,39.43
2023-05-22T14:22:47.901Z,39.92
2023-05-22T14:25:23.797Z,41.66
2023-05-22T14:27:51.353Z,41.64
2023-05-22T14:30:20.315Z,39.96
2023-05-22T14:32:48.671Z,39.24
2023-05-22T14:35:16.526Z,37.31
2023-05-22T14:37:44.749Z,39.85
2023-05-22T14:40:12.654Z,39.92
2023-05-22T14:42:40.166Z,39.25
2023-05-22T14:45:08.595Z,39.00
2023-05-22T14:47:37.457Z,43.00
2023-05-22T14:50:18.175Z,42.50
2023-05-22T14:52:47.001Z,42.40
2023-05-22T14:55:14.521Z,42.45
2023-05-22T14:57:42.042Z,46.33
2023-05-22T15:00:10.833Z,47.49
2023-05-22T15:02:40.100Z,48.37
2023-05-22T15:05:08.349Z,49.33
2023-05-22T15:07:43.973Z,49.25
2023-05-22T15:10:12.968Z,51.11
2023-05-22T15:12:40.762Z,51.49
2023-05-22T15:15:09.566Z,51.92
2023-05-22T15:17:37.154Z,51.83
2023-05-22T15:20:07.624Z,53.59
2023-05-22T15:22:35.186Z,54.40
2023-05-22T15:25:06.215Z,53.92
2023-05-22T15:27:34.569Z,53.48
2023-05-22T15:30:02.324Z,53.46
2023-05-22T15:32:30.656Z,53.68
2023-05-22T15:34:58.519Z,53.62
2023-05-22T15:37:29.164Z,53.72
2023-05-22T15:39:58.383Z,52.26
2023-05-22T15:42:25.908Z,52.23
2023-05-22T15:44:53.450Z,52.36
2023-05-22T15:47:21.039Z,52.34
2023-05-22T15:49:48.588Z,51.83
2023-05-22T15:52:16.315Z,52.54
2023-05-22T15:54:45.196Z,50.21
2023-05-22T15:57:12.692Z,49.40
2023-05-22T15:59:40.270Z,50.80
2023-05-22T16:02:08.428Z,51.23
2023-05-22T16:04:36.100Z,53.83
2023-05-22T16:07:03.788Z,55.18
2023-05-22T16:09:32.756Z,55.09
2023-05-22T16:12:01.893Z,55.12
2023-05-22T16:14:29.464Z,54.25
2023-05-22T16:16:57.614Z,56.94
2023-05-22T16:19:25.229Z,54.12
2023-05-22T16:21:52.847Z,55.01
2023-05-22T16:24:20.415Z,55.86
2023-05-22T16:26:47.956Z,54.43
2023-05-22T16:29:20.343Z,52.83
2023-05-22T16:31:47.892Z,51.41
2023-05-22T16:34:15.496Z,52.22
2023-05-22T16:36:43.146Z,51.72
2023-05-22T16:39:10.833Z,53.93
2023-05-22T16:41:38.679Z,55.87
2023-05-22T16:44:06.276Z,56.25
2023-05-22T16:46:35.327Z,55.90
2023-05-22T16:49:03.030Z,56.44
2023-05-22T16:51:30.812Z,56.37
2023-05-22T16:53:58.336Z,55.93
2023-05-22T16:56:25.948Z,56.38
2023-05-22T16:58:53.453Z,55.79
2023-05-22T17:01:21.833Z,56.21
2023-05-22T17:03:50.969Z,56.03
2023-05-22T17:06:20.926Z,56.68
2023-05-22T17:08:48.792Z,57.03
2023-05-22T17:11:16.334Z,58.22
2023-05-22T17:13:43.956Z,60.31
2023-05-22T17:16:11.492Z,60.04
2023-05-22T17:18:39.078Z,61.53
2023-05-22T17:21:09.069Z,61.10
2023-05-22T17:23:37.233Z,63.55
2023-05-22T17:26:05.003Z,61.83
2023-05-22T17:28:32.628Z,61.56
2023-05-22T17:31:01.607Z,62.89
2023-05-22T17:33:29.253Z,61.44
2023-05-22T17:35:56.799Z,63.23
2023-05-22T17:38:26.076Z,66.16
2023-05-22T17:40:53.772Z,68.86
2023-05-22T17:43:21.465Z,71.60
2023-05-22T17:45:50.715Z,73.58
2023-05-22T17:48:23.313Z,76.11
2023-05-22T17:50:51.991Z,76.09
2023-05-22T17:53:20.573Z,75.85
2023-05-22T17:55:52.157Z,77.95
2023-05-22T17:58:20.490Z,80.62
2023-05-22T18:00:48.932Z,81.03
2023-05-22T18:03:20.121Z,82.16
2023-05-22T18:05:48.223Z,82.94
2023-05-22T18:08:16.004Z,81.85
2023-05-22T18:10:43.753Z,82.06
2023-05-22T18:13:12.688Z,80.36
2023-05-22T18:15:40.645Z,80.02
2023-05-22T18:18:09.555Z,80.33
2023-05-22T18:20:38.755Z,80.49
2023-05-22T18:23:06.474Z,80.34
2023-05-22T18:25:33.996Z,81.72
2023-05-22T18:28:01.534Z,81.04
2023-05-22T18:30:30.496Z,77.98
2023-05-22T18:32:58.115Z,76.28
2023-05-22T18:35:25.791Z,74.91
2023-05-22T18:37:53.562Z,72.98
2023-05-22T18:40:21.161Z,70.94
2023-05-22T18:42:48.719Z,70.15
2023-05-22T18:45:16.304Z,72.61
2023-05-22T18:47:45.222Z,75.80
2023-05-22T18:50:13.301Z,79.52
2023-05-22T18:55:09.092Z,82.84
2023-05-22T18:57:36.869Z,85.71
2023-05-22T19:00:04.913Z,85.34
2023-05-22T19:02:32.473Z,84.85
2023-05-22T19:05:01.472Z,86.93
2023-05-22T19:07:29.074Z,87.04
2023-05-22T19:09:56.604Z,86.43
2023-05-22T19:12:24.683Z,86.19
2023-05-22T19:14:52.451Z,87.55
2023-05-22T19:17:19.978Z,87.88
2023-05-22T19:19:47.539Z,88.71
2023-05-22T19:22:18.070Z,89.26
2023-05-22T19:24:45.747Z,87.76
2023-05-22T19:27:13.328Z,87.83
2023-05-22T19:29:40.875Z,86.85
2023-05-22T19:32:08.510Z,86.93
2023-05-22T19:34:36.163Z,86.46
2023-05-22T19:37:03.874Z,88.67
2023-05-22T19:39:32.889Z,87.98
2023-05-22T19:42:00.579Z,85.24
2023-05-22T19:44:28.064Z,85.41
2023-05-22T19:46:56.582Z,85.05
2023-05-22T19:49:24.225Z,85.59
2023-05-22T19:51:53.028Z,86.95
2023-05-22T19:54:22.367Z,86.08
2023-05-22T19:56:51.270Z,86.61
2023-05-22T19:59:18.828Z,87.38
2023-05-22T20:01:46.511Z,89.71
2023-05-22T20:04:14.298Z,91.08
2023-05-22T20:06:42.120Z,90.54
2023-05-22T20:09:10.091Z,86.38
2023-05-22T20:11:37.903Z,85.19
2023-05-22T20:14:07.593Z,83.05
2023-05-22T20:16:35.225Z,81.89
2023-05-22T20:19:03.761Z,80.32
2023-05-22T20:21:32.096Z,79.74
2023-05-22T20:23:59.650Z,77.42
2023-05-22T20:26:27.638Z,76.86
2023-05-22T20:28:55.221Z,77.03
2023-05-22T20:31:24.148Z,77.13
2023-05-22T20:33:51.671Z,77.08
2023-05-22T20:36:19.201Z,77.00
2023-05-22T20:38:46.721Z,76.29
2023-05-22T20:41:14.228Z,76.06
2023-05-22T20:43:43.205Z,76.37
2023-05-22T20:46:11.365Z,78.27
2023-05-22T20:48:46.651Z,76.91
2023-05-22T20:51:15.516Z,78.01
2023-05-22T20:53:43.049Z,77.36
2023-05-22T20:56:10.625Z,79.93
2023-05-22T20:58:39.174Z,79.90
2023-05-22T21:01:06.976Z,77.90
2023-05-22T21:03:34.491Z,77.82
2023-05-22T21:06:03.544Z,79.20
2023-05-22T21:08:31.111Z,78.54
2023-05-22T21:10:58.648Z,78.46
2023-05-22T21:13:26.180Z,78.88
2023-05-22T21:15:53.749Z,79.97
2023-05-22T21:18:21.939Z,79.08
2023-05-22T21:20:49.477Z,78.47
2023-05-22T21:23:18.341Z,80.66
2023-05-22T21:25:45.867Z,79.03
2023-05-22T21:28:13.486Z,78.54
2023-05-22T21:30:41.473Z,79.21
2023-05-22T21:33:09.273Z,80.27
2023-05-22T21:35:37.064Z,80.39
2023-05-22T21:38:04.585Z,79.96
2023-05-22T21:40:33.456Z,80.52
2023-05-22T21:43:01.023Z,81.17
2023-05-22T21:45:28.593Z,81.13
2023-05-22T21:47:56.193Z,81.76
2023-05-22T21:50:23.726Z,81.50
2023-05-22T21:52:51.287Z,82.85
2023-05-22T21:55:18.757Z,82.99
2023-05-22T21:57:47.650Z,83.16
2023-05-22T22:00:17.124Z,82.71
2023-05-22T22:02:44.737Z,82.35
2023-05-22T22:05:12.556Z,82.73
2023-05-22T22:07:40.077Z,83.51
2023-05-22T22:10:08.632Z,83.21
2023-05-22T22:12:36.160Z,83.30
2023-05-22T22:15:05.490Z,83.16
2023-05-22T22:17:34.759Z,83.92
2023-05-22T22:20:02.465Z,84.21
2023-05-22T22:22:30.119Z,83.24
2023-05-22T22:24:57.698Z,83.42
2023-05-22T22:27:25.449Z,84.00
2023-05-22T22:29:52.993Z,84.04
2023-05-22T22:32:21.891Z,83.77
2023-05-22T22:34:53.618Z,84.18
2023-05-22T22:37:21.924Z,84.41
2023-05-22T22:39:49.442Z,83.40
2023-05-22T22:42:16.940Z,82.61
2023-05-22T22:44:44.551Z,82.50
2023-05-22T22:47:12.322Z,81.42
2023-05-22T22:49:41.284Z,82.76
2023-05-22T22:52:08.780Z,82.73
2023-05-22T22:54:36.372Z,85.08
2023-05-22T22:57:04.026Z,84.31
2023-05-22T22:59:31.764Z,84.08
2023-05-22T23:01:59.550Z,84.10
2023-05-22T23:04:29.517Z,86.01
2023-05-22T23:06:58.561Z,84.86
2023-05-22T23:09:26.315Z,85.47
2023-05-22T23:11:53.814Z,85.19
2023-05-22T23:14:21.344Z,84.36
2023-05-22T23:16:48.994Z,84.02
2023-05-22T23:19:16.498Z,84.55
2023-05-22T23:21:44.104Z,84.47
2023-05-22T23:24:12.968Z,83.62
2023-05-22T23:26:40.520Z,83.21
2023-05-22T23:29:08.147Z,83.08
2023-05-22T23:31:36.480Z,83.45
2023-05-22T23:34:04.073Z,82.82
2023-05-22T23:36:32.515Z,81.80
2023-05-22T23:39:00.033Z,81.35
2023-05-22T23:41:28.958Z,82.08
2023-05-22T23:43:56.589Z,81.87
2023-05-22T23:46:24.276Z,82.11
2023-05-22T23:48:52.074Z,82.47
2023-05-22T23:51:19.767Z,83.69
2023-05-22T23:53:47.263Z,84.08
2023-05-22T23:56:14.805Z,83.46
2023-05-22T23:58:43.614Z,83.67
